Time;durP1;ratioP1;P1;durP2;ratioP2;P2;SDS_P1;SDS_P2;PMS_P1;PMS_P2;Temp;Humidity;BMP_temperature;BMP_pressure;BME280_temperature;BME280_humidity;BME280_pressure;Samples;Min_cycle;Max_cycle;Signal;HPM_P1;HPM_P2
2023/09/22 00:00:32;;;;;;;6.03;4.53;;;;;;;;;;5108354;27;40407;-70
2023/09/22 00:03:00;;;;;;;3.45;3.15;;;;;;;;;;5120704;27;40166;-69
2023/09/22 00:05:28;;;;;;;3.55;2.40;;;;;;;;;;5125478;27;41072;-70
2023/09/22 00:07:56;;;;;;;5.32;4.82;;;;;;;;;;5127688;27;41716;-70
2023/09/22 00:10:25;;;;;;;5.68;5.10;;;;;;;;;;5113085;27;42610;-70
2023/09/22 00:12:54;;;;;;;5.15;4.65;;;;;;;;;;5128294;27;41747;-70
2023/09/22 00:15:22;;;;;;;4.80;4.10;;;;;;;;;;5123737;27;41412;-70
2023/09/22 00:17:50;;;;;;;4.53;3.47;;;;;;;;;;5118224;27;41689;-70
2023/09/22 00:20:19;;;;;;;3.95;3.28;;;;;;;;;;5124573;27;43780;-70
2023/09/22 00:22:47;;;;;;;6.72;5.75;;;;;;;;;;5127297;27;42235;-70
2023/09/22 00:25:16;;;;;;;7.43;6.30;;;;;;;;;;5127027;27;42586;-70
2023/09/22 00:27:45;;;;;;;5.88;4.85;;;;;;;;;;5124710;27;42152;-70
2023/09/22 00:30:13;;;;;;;5.95;5.15;;;;;;;;;;5126897;27;40276;-70
2023/09/22 00:32:42;;;;;;;5.60;3.47;;;;;;;;;;5128416;27;41543;-70
2023/09/22 00:35:14;;;;;;;7.10;6.00;;;;;;;;;;5125055;27;41694;-70
2023/09/22 00:37:42;;;;;;;4.55;4.07;;;;;;;;;;5127812;27;42702;-70
2023/09/22 00:40:12;;;;;;;2.70;2.38;;;;;;;;;;5116023;27;41679;-70
2023/09/22 00:42:40;;;;;;;5.43;4.82;;;;;;;;;;5127791;27;40545;-70
2023/09/22 00:45:10;;;;;;;4.80;3.65;;;;;;;;;;5128754;27;41644;-70
2023/09/22 00:47:38;;;;;;;7.82;5.95;;;;;;;;;;5109328;27;40635;-70
2023/09/22 00:50:07;;;;;;;8.23;5.90;;;;;;;;;;5109135;27;40699;-70
2023/09/22 00:52:35;;;;;;;5.60;4.93;;;;;;;;;;5128127;27;43137;-70
2023/09/22 00:55:03;;;;;;;6.40;5.05;;;;;;;;;;5129390;27;42330;-70
2023/09/22 00:57:31;;;;;;;3.25;2.67;;;;;;;;;;5130982;27;42672;-70
2023/09/22 00:59:59;;;;;;;3.13;2.83;;;;;;;;;;5131587;27;42826;-70
2023/09/22 01:02:29;;;;;;;4.95;4.22;;;;;;;;;;5112958;27;40652;-70
2023/09/22 01:04:57;;;;;;;6.50;5.38;;;;;;;;;;5119028;27;40863;-70
2023/09/22 01:07:26;;;;;;;7.13;4.13;;;;;;;;;;5106985;27;41265;-70
2023/09/22 01:09:54;;;;;;;6.35;5.13;;;;;;;;;;5130908;27;42385;-69
2023/09/22 01:12:22;;;;;;;4.05;3.65;;;;;;;;;;5127364;27;42751;-70
2023/09/22 01:14:50;;;;;;;3.83;3.42;;;;;;;;;;5102004;27;41069;-70
2023/09/22 01:17:18;;;;;;;4.07;3.33;;;;;;;;;;5130009;27;41887;-70
2023/09/22 01:19:48;;;;;;;4.22;3.33;;;;;;;;;;5131230;27;42683;-70
2023/09/22 01:22:18;;;;;;;3.58;3.28;;;;;;;;;;5119199;27;41346;-70
2023/09/22 01:24:46;;;;;;;4.38;3.15;;;;;;;;;;5145864;27;39917;-70
2023/09/22 01:27:15;;;;;;;6.60;5.70;;;;;;;;;;5131676;27;43296;-70
2023/09/22 01:29:43;;;;;;;4.60;4.07;;;;;;;;;;5131083;27;41723;-70
2023/09/22 01:32:11;;;;;;;5.07;4.03;;;;;;;;;;5130181;27;41753;-70
2023/09/22 01:34:39;;;;;;;1.88;1.67;;;;;;;;;;5131271;27;43263;-70
2023/09/22 01:37:08;;;;;;;3.13;2.83;;;;;;;;;;5113478;27;20255;-70
2023/09/22 01:39:38;;;;;;;3.45;2.83;;;;;;;;;;5119689;27;41930;-70
2023/09/22 01:42:08;;;;;;;5.28;4.25;;;;;;;;;;5131533;27;42118;-70
2023/09/22 01:44:36;;;;;;;8.27;7.13;;;;;;;;;;5111523;27;40828;-70
2023/09/22 01:47:04;;;;;;;3.67;3.28;;;;;;;;;;5130447;27;41967;-70
2023/09/22 01:49:32;;;;;;;5.55;4.45;;;;;;;;;;5130305;27;41521;-70
2023/09/22 01:52:01;;;;;;;4.10;3.63;;;;;;;;;;5127323;27;41813;-70
2023/09/22 01:54:29;;;;;;;6.75;6.05;;;;;;;;;;5108908;27;41557;-70
2023/09/22 01:56:58;;;;;;;9.88;8.88;;;;;;;;;;5131344;27;41330;-70
2023/09/22 01:59:26;;;;;;;5.30;4.80;;;;;;;;;;5129600;27;43114;-70
2023/09/22 02:01:54;;;;;;;8.45;7.32;;;;;;;;;;5124836;27;40094;-70
2023/09/22 02:04:22;;;;;;;7.20;6.47;;;;;;;;;;5127781;27;42620;-70
2023/09/22 02:06:51;;;;;;;6.03;5.07;;;;;;;;;;5129090;27;41933;-70
2023/09/22 02:09:19;;;;;;;5.70;5.10;;;;;;;;;;5120594;27;39638;-70
2023/09/22 02:11:47;;;;;;;7.68;6.78;;;;;;;;;;5114198;27;40130;-70
2023/09/22 02:14:17;;;;;;;5.75;5.15;;;;;;;;;;5129618;27;42372;-70
2023/09/22 02:16:45;;;;;;;9.13;7.68;;;;;;;;;;5129872;27;42215;-70
2023/09/22 02:19:13;;;;;;;5.10;4.22;;;;;;;;;;5129238;27;43130;-70
2023/09/22 02:21:41;;;;;;;6.55;5.32;;;;;;;;;;5129175;27;41098;-70
2023/09/22 02:24:09;;;;;;;4.70;4.15;;;;;;;;;;5129398;27;41719;-70
2023/09/22 02:26:38;;;;;;;4.22;3.63;;;;;;;;;;5129765;27;42063;-70
2023/09/22 02:29:06;;;;;;;4.40;3.97;;;;;;;;;;5129458;27;41568;-70
2023/09/22 02:31:35;;;;;;;5.82;5.22;;;;;;;;;;5110992;27;40213;-70
2023/09/22 02:34:04;;;;;;;5.82;5.22;;;;;;;;;;5110582;27;40453;-70
2023/09/22 02:36:32;;;;;;;7.55;6.75;;;;;;;;;;5125696;27;40488;-70
2023/09/22 02:39:01;;;;;;;3.35;3.05;;;;;;;;;;5130195;27;42186;-70
2023/09/22 02:41:28;;;;;;;3.30;3.00;;;;;;;;;;5128375;27;40830;-70
2023/09/22 02:43:57;;;;;;;6.00;4.63;;;;;;;;;;5121262;27;39909;-70
2023/09/22 02:46:25;;;;;;;6.93;5.30;;;;;;;;;;5129050;27;43111;-70
2023/09/22 02:48:55;;;;;;;4.90;4.15;;;;;;;;;;5124059;27;41304;-70
2023/09/22 02:51:23;;;;;;;3.40;2.95;;;;;;;;;;5124691;27;42415;-70
2023/09/22 02:53:51;;;;;;;3.20;2.90;;;;;;;;;;5124732;27;40997;-70
2023/09/22 02:56:19;;;;;;;3.30;3.00;;;;;;;;;;5128662;27;40549;-70
2023/09/22 02:58:48;;;;;;;4.25;3.83;;;;;;;;;;5129257;27;42295;-70
2023/09/22 03:01:16;;;;;;;3.30;2.90;;;;;;;;;;5129791;27;41870;-70
2023/09/22 03:03:44;;;;;;;3.67;3.30;;;;;;;;;;5128487;27;41585;-70
2023/09/22 03:06:14;;;;;;;4.20;3.30;;;;;;;;;;5124877;27;41602;-70
2023/09/22 03:08:44;;;;;;;2.60;2.40;;;;;;;;;;5127035;27;41183;-70
2023/09/22 03:11:13;;;;;;;4.80;3.85;;;;;;;;;;5109753;27;40404;-70
2023/09/22 03:13:41;;;;;;;4.10;3.67;;;;;;;;;;5126987;27;41302;-70
2023/09/22 03:16:10;;;;;;;4.07;3.67;;;;;;;;;;5127279;27;41658;-70
2023/09/22 03:18:39;;;;;;;3.60;3.22;;;;;;;;;;5115201;27;40752;-70
2023/09/22 03:21:07;;;;;;;4.35;3.28;;;;;;;;;;5110485;27;40231;-70
2023/09/22 03:23:36;;;;;;;3.67;3.25;;;;;;;;;;5110489;27;42135;-70
2023/09/22 03:26:04;;;;;;;4.22;3.83;;;;;;;;;;5108242;28;42207;-70
2023/09/22 03:28:32;;;;;;;2.92;2.47;;;;;;;;;;5107556;28;41319;-70
2023/09/22 03:31:01;;;;;;;4.97;3.35;;;;;;;;;;5107470;28;41757;-70
2023/09/22 03:33:30;;;;;;;3.83;3.30;;;;;;;;;;5106392;28;40504;-70
2023/09/22 03:35:58;;;;;;;4.63;3.40;;;;;;;;;;5107876;28;41529;-70
2023/09/22 03:38:28;;;;;;;4.68;3.85;;;;;;;;;;5107320;28;41185;-70
2023/09/22 03:41:00;;;;;;;4.32;3.60;;;;;;;;;;5107999;28;42399;-69
2023/09/22 03:43:28;;;;;;;5.13;4.32;;;;;;;;;;5106182;28;40421;-70
2023/09/22 03:45:56;;;;;;;3.17;2.80;;;;;;;;;;5108074;28;42300;-69
2023/09/22 03:48:24;;;;;;;3.72;3.35;;;;;;;;;;5107462;28;42190;-70
2023/09/22 03:50:53;;;;;;;5.00;3.88;;;;;;;;;;5107898;28;41508;-70
2023/09/22 03:53:22;;;;;;;3.40;3.10;;;;;;;;;;5106934;28;42086;-69
2023/09/22 03:55:50;;;;;;;3.70;3.30;;;;;;;;;;5108054;28;41239;-70
2023/09/22 03:58:20;;;;;;;3.90;2.85;;;;;;;;;;5106058;28;40139;-69
2023/09/22 04:00:48;;;;;;;3.80;3.45;;;;;;;;;;5106091;28;41077;-70
2023/09/22 04:03:18;;;;;;;3.00;2.70;;;;;;;;;;5107865;28;42251;-70
2023/09/22 04:05:46;;;;;;;4.07;3.53;;;;;;;;;;5107550;28;41649;-70
2023/09/22 04:08:16;;;;;;;3.50;3.17;;;;;;;;;;5108361;28;34541;-70
2023/09/22 04:10:44;;;;;;;3.17;2.75;;;;;;;;;;5107658;28;42326;-70
2023/09/22 04:13:12;;;;;;;4.50;3.25;;;;;;;;;;5105878;28;41920;-70
2023/09/22 04:15:41;;;;;;;2.42;2.22;;;;;;;;;;5106365;28;41947;-70
2023/09/22 04:18:10;;;;;;;2.50;2.28;;;;;;;;;;5107553;28;41626;-70
2023/09/22 04:20:43;;;;;;;3.35;2.67;;;;;;;;;;5106236;28;42226;-69
2023/09/22 04:23:11;;;;;;;3.17;2.78;;;;;;;;;;5101134;28;41815;-70
2023/09/22 04:25:39;;;;;;;5.28;4.53;;;;;;;;;;5117970;27;42270;-70
2023/09/22 04:28:11;;;;;;;4.25;3.30;;;;;;;;;;5120098;27;42820;-70
2023/09/22 04:30:40;;;;;;;3.58;3.17;;;;;;;;;;5123648;27;42405;-70
2023/09/22 04:33:11;;;;;;;4.55;3.38;;;;;;;;;;5127826;27;42073;-69
2023/09/22 04:35:40;;;;;;;4.20;3.20;;;;;;;;;;5126751;27;42252;-70
2023/09/22 04:38:10;;;;;;;3.53;2.78;;;;;;;;;;5127718;27;42667;-70
2023/09/22 04:40:38;;;;;;;4.00;3.05;;;;;;;;;;5123959;27;41839;-70
2023/09/22 04:43:07;;;;;;;4.10;3.45;;;;;;;;;;5124788;27;41264;-70
2023/09/22 04:45:39;;;;;;;2.92;2.35;;;;;;;;;;5127302;27;41595;-70
2023/09/22 04:48:07;;;;;;;3.60;2.67;;;;;;;;;;5124673;27;41340;-70
2023/09/22 04:50:36;;;;;;;2.58;1.85;;;;;;;;;;5118531;27;41307;-70
2023/09/22 04:53:05;;;;;;;3.92;2.90;;;;;;;;;;5124338;27;42152;-69
2023/09/22 04:55:35;;;;;;;2.50;2.20;;;;;;;;;;5126910;27;40875;-70
2023/09/22 04:58:03;;;;;;;4.68;4.15;;;;;;;;;;5127985;27;40801;-69
2023/09/22 05:00:33;;;;;;;3.72;2.53;;;;;;;;;;5127472;27;42137;-69
2023/09/22 05:03:02;;;;;;;3.03;2.47;;;;;;;;;;5127348;27;41143;-70
2023/09/22 05:05:30;;;;;;;2.33;2.13;;;;;;;;;;5125861;27;41714;-70
2023/09/22 05:08:00;;;;;;;4.60;3.50;;;;;;;;;;5128109;27;42815;-69
2023/09/22 05:10:28;;;;;;;2.78;2.47;;;;;;;;;;5126257;27;42284;-70
2023/09/22 05:12:56;;;;;;;2.72;2.17;;;;;;;;;;5128412;27;41192;-70
2023/09/22 05:15:28;;;;;;;2.20;1.98;;;;;;;;;;5124329;27;41361;-70
2023/09/22 05:17:56;;;;;;;4.25;2.85;;;;;;;;;;5116242;27;41682;-70
2023/09/22 05:20:24;;;;;;;4.43;3.80;;;;;;;;;;5111199;27;40912;-70
2023/09/22 05:22:52;;;;;;;2.97;2.65;;;;;;;;;;5116161;27;41182;-69
2023/09/22 05:25:22;;;;;;;3.13;2.40;;;;;;;;;;5127535;27;41362;-70
2023/09/22 05:27:50;;;;;;;4.00;3.35;;;;;;;;;;5126484;27;43178;-70
2023/09/22 05:30:21;;;;;;;1.88;1.55;;;;;;;;;;5124624;27;42281;-70
2023/09/22 05:32:49;;;;;;;2.83;2.50;;;;;;;;;;5119055;27;42678;-70
2023/09/22 05:35:17;;;;;;;1.30;1.20;;;;;;;;;;5126779;27;42069;-70
2023/09/22 05:37:45;;;;;;;2.40;2.20;;;;;;;;;;5126566;27;41313;-70
2023/09/22 05:40:14;;;;;;;2.13;1.60;;;;;;;;;;5126182;27;42016;-70
2023/09/22 05:42:43;;;;;;;2.88;2.58;;;;;;;;;;5126690;27;40937;-70
2023/09/22 05:45:11;;;;;;;3.22;1.67;;;;;;;;;;5130344;27;41381;-70
2023/09/22 05:47:40;;;;;;;1.23;1.13;;;;;;;;;;5129479;27;41651;-70
2023/09/22 05:50:10;;;;;;;3.08;1.42;;;;;;;;;;5129704;27;40616;-70
2023/09/22 05:52:39;;;;;;;7.20;1.50;;;;;;;;;;5128242;27;43731;-71
2023/09/22 05:55:10;;;;;;;4.85;1.58;;;;;;;;;;5125658;27;41614;-71
2023/09/22 05:57:38;;;;;;;2.67;1.40;;;;;;;;;;5129956;27;40850;-69
2023/09/22 06:00:12;;;;;;;5.10;1.77;;;;;;;;;;5130413;27;41620;-69
2023/09/22 06:02:40;;;;;;;4.63;1.70;;;;;;;;;;5123647;27;41441;-71
2023/09/22 06:05:09;;;;;;;9.63;1.85;;;;;;;;;;5124879;27;41207;-69
2023/09/22 06:07:37;;;;;;;4.10;1.55;;;;;;;;;;5129899;27;42062;-69
2023/09/22 06:10:06;;;;;;;4.65;1.70;;;;;;;;;;5130747;27;41212;-70
2023/09/22 06:12:34;;;;;;;14.98;1.77;;;;;;;;;;5128985;27;42756;-69
2023/09/22 06:15:02;;;;;;;5.13;1.63;;;;;;;;;;5130499;27;42117;-69
2023/09/22 06:17:32;;;;;;;7.72;2.10;;;;;;;;;;5123423;27;42206;-69
2023/09/22 06:20:07;;;;;;;8.93;1.92;;;;;;;;;;5128102;27;42097;-72
2023/09/22 06:22:35;;;;;;;4.82;1.35;;;;;;;;;;5126167;27;41738;-70
2023/09/22 06:25:04;;;;;;;2.78;1.77;;;;;;;;;;5107311;27;41829;-69
2023/09/22 06:27:33;;;;;;;2.78;1.58;;;;;;;;;;5128260;27;43166;-69
2023/09/22 06:30:02;;;;;;;5.32;1.67;;;;;;;;;;5129529;27;41967;-69
2023/09/22 06:32:32;;;;;;;2.85;1.60;;;;;;;;;;5129269;27;41647;-69
2023/09/22 06:35:00;;;;;;;2.83;1.83;;;;;;;;;;5124091;27;41261;-69
2023/09/22 06:37:28;;;;;;;4.63;1.52;;;;;;;;;;5128979;27;41881;-69
2023/09/22 06:39:56;;;;;;;7.65;1.60;;;;;;;;;;5130367;27;41678;-69
2023/09/22 06:42:25;;;;;;;4.60;1.80;;;;;;;;;;5128302;27;41709;-69
2023/09/22 06:44:53;;;;;;;3.05;1.48;;;;;;;;;;5124720;27;41815;-69
2023/09/22 06:47:23;;;;;;;6.30;1.83;;;;;;;;;;5129239;27;42318;-70
2023/09/22 06:49:52;;;;;;;4.30;1.40;;;;;;;;;;5124995;27;41855;-70
2023/09/22 06:52:20;;;;;;;3.47;1.90;;;;;;;;;;5128465;27;41637;-70
2023/09/22 06:54:49;;;;;;;3.95;1.75;;;;;;;;;;5129646;27;43341;-70
2023/09/22 06:57:17;;;;;;;16.02;1.92;;;;;;;;;;5125707;27;41984;-71
2023/09/22 06:59:45;;;;;;;3.95;1.60;;;;;;;;;;5124520;27;41634;-70
2023/09/22 07:02:13;;;;;;;8.70;2.13;;;;;;;;;;5129389;27;43187;-71
2023/09/22 07:04:41;;;;;;;6.60;1.67;;;;;;;;;;5128575;27;42393;-70
2023/09/22 07:07:11;;;;;;;4.03;1.77;;;;;;;;;;5126595;27;42093;-70
2023/09/22 07:09:39;;;;;;;6.60;1.90;;;;;;;;;;5122334;27;40946;-70
2023/09/22 07:12:08;;;;;;;6.15;1.60;;;;;;;;;;5128849;27;41949;-70
2023/09/22 07:14:36;;;;;;;4.13;1.40;;;;;;;;;;5129023;27;42386;-70
2023/09/22 07:17:04;;;;;;;7.85;1.75;;;;;;;;;;5127924;27;40800;-69
2023/09/22 07:19:34;;;;;;;4.38;1.40;;;;;;;;;;5127194;27;41937;-69
2023/09/22 07:22:02;;;;;;;5.93;1.52;;;;;;;;;;5125957;27;42942;-69
2023/09/22 07:24:33;;;;;;;6.40;1.90;;;;;;;;;;5126528;27;41808;-69
2023/09/22 07:27:01;;;;;;;4.47;1.60;;;;;;;;;;5127393;27;42153;-69
2023/09/22 07:29:29;;;;;;;2.33;1.40;;;;;;;;;;5126256;27;41488;-70
2023/09/22 07:31:57;;;;;;;1.00;0.90;;;;;;;;;;5127963;27;41375;-71
2023/09/22 07:34:25;;;;;;;3.80;1.15;;;;;;;;;;5128562;27;41905;-71
2023/09/22 07:36:53;;;;;;;3.13;1.65;;;;;;;;;;5128749;27;41747;-71
2023/09/22 07:39:39;;;;;;;10.05;1.55;;;;;;;;;;5127740;27;41162;-70
2023/09/22 07:42:07;;;;;;;9.98;1.90;;;;;;;;;;5127836;27;42745;-70
2023/09/22 07:44:35;;;;;;;7.53;2.00;;;;;;;;;;5127714;27;41444;-69
2023/09/22 07:47:10;;;;;;;9.55;1.75;;;;;;;;;;5128950;27;41431;-69
2023/09/22 07:49:38;;;;;;;12.15;1.40;;;;;;;;;;5125314;27;42303;-69
2023/09/22 07:52:09;;;;;;;4.03;1.50;;;;;;;;;;5127820;27;42132;-69
2023/09/22 07:54:38;;;;;;;12.27;1.35;;;;;;;;;;5128273;27;41710;-69
2023/09/22 07:57:06;;;;;;;5.20;1.38;;;;;;;;;;5114732;27;41145;-69
2023/09/22 07:59:34;;;;;;;5.03;1.35;;;;;;;;;;5127632;27;42420;-68
2023/09/22 08:02:03;;;;;;;7.25;1.40;;;;;;;;;;5128308;27;42083;-69
2023/09/22 08:04:31;;;;;;;2.60;1.20;;;;;;;;;;5126922;27;40862;-69
2023/09/22 08:06:59;;;;;;;11.10;1.67;;;;;;;;;;5127734;27;41645;-69
2023/09/22 08:09:28;;;;;;;6.55;1.52;;;;;;;;;;5128093;27;43022;-69
2023/09/22 08:11:57;;;;;;;4.97;1.67;;;;;;;;;;5127596;27;41145;-69
2023/09/22 08:14:26;;;;;;;4.10;1.02;;;;;;;;;;5127564;27;42273;-69
2023/09/22 08:17:15;;;;;;;3.78;1.20;;;;;;;;;;5124220;27;41193;-69
2023/09/22 08:19:43;;;;;;;6.55;1.60;;;;;;;;;;5126902;27;41359;-69
2023/09/22 08:22:12;;;;;;;6.32;1.73;;;;;;;;;;5127443;27;42123;-69
2023/09/22 08:24:40;;;;;;;4.13;1.52;;;;;;;;;;5126940;27;40875;-70
2023/09/22 08:27:10;;;;;;;4.35;1.30;;;;;;;;;;5110925;27;40147;-69
2023/09/22 08:29:38;;;;;;;4.60;1.05;;;;;;;;;;5127389;27;41977;-69
2023/09/22 08:32:07;;;;;;;8.13;1.40;;;;;;;;;;5128054;27;41889;-70
2023/09/22 08:34:38;;;;;;;4.85;1.50;;;;;;;;;;5124652;27;43292;-69
2023/09/22 08:37:06;;;;;;;4.28;1.33;;;;;;;;;;5127981;27;40963;-69
2023/09/22 08:39:34;;;;;;;3.03;1.73;;;;;;;;;;5127351;27;41292;-69
2023/09/22 08:42:02;;;;;;;5.25;2.10;;;;;;;;;;5127396;27;43091;-69
2023/09/22 08:44:32;;;;;;;5.25;1.70;;;;;;;;;;5126462;27;41335;-69
2023/09/22 08:47:01;;;;;;;4.40;1.70;;;;;;;;;;5127129;27;41909;-70
2023/09/22 08:49:29;;;;;;;7.38;2.00;;;;;;;;;;5126733;27;43372;-73
2023/09/22 08:51:59;;;;;;;5.38;2.38;;;;;;;;;;5128413;27;41338;-70
2023/09/22 08:54:28;;;;;;;8.65;2.75;;;;;;;;;;5126521;27;42787;-71
2023/09/22 08:56:56;;;;;;;4.35;2.58;;;;;;;;;;5128174;27;42389;-69
2023/09/22 08:59:24;;;;;;;3.92;2.30;;;;;;;;;;5127196;27;43394;-69
2023/09/22 09:01:53;;;;;;;3.63;2.17;;;;;;;;;;5127186;27;42550;-70
2023/09/22 09:04:32;;;;;;;5.68;1.95;;;;;;;;;;5107638;27;39863;-70
2023/09/22 09:07:01;;;;;;;6.47;2.10;;;;;;;;;;5105212;28;39974;-69
2023/09/22 09:09:40;;;;;;;4.00;1.85;;;;;;;;;;5125092;27;42262;-70
2023/09/22 09:12:09;;;;;;;2.88;1.52;;;;;;;;;;5124415;27;42236;-69
2023/09/22 09:14:38;;;;;;;2.20;1.40;;;;;;;;;;5126368;27;42035;-69
2023/09/22 09:17:22;;;;;;;3.15;1.60;;;;;;;;;;5128986;27;41802;-69
2023/09/22 09:19:55;;;;;;;2.10;1.33;;;;;;;;;;5108484;27;40263;-70
2023/09/22 09:22:24;;;;;;;3.42;1.20;;;;;;;;;;5126701;27;42272;-70
2023/09/22 09:24:53;;;;;;;2.33;1.25;;;;;;;;;;5130064;27;42848;-69
2023/09/22 09:27:22;;;;;;;3.90;1.58;;;;;;;;;;5130537;27;41844;-69
2023/09/22 09:29:51;;;;;;;4.38;1.20;;;;;;;;;;5129095;27;41699;-69
2023/09/22 09:32:22;;;;;;;2.08;0.88;;;;;;;;;;5130280;27;41533;-70
2023/09/22 09:34:51;;;;;;;1.48;0.70;;;;;;;;;;5110445;27;41366;-69
2023/09/22 09:37:21;;;;;;;1.55;0.90;;;;;;;;;;5129688;27;42837;-69
2023/09/22 09:39:50;;;;;;;4.32;0.98;;;;;;;;;;5129747;27;42052;-69
2023/09/22 09:42:18;;;;;;;8.82;0.75;;;;;;;;;;5129999;27;42713;-69
2023/09/22 09:44:47;;;;;;;2.42;0.70;;;;;;;;;;5129320;27;42570;-70
2023/09/22 09:47:21;;;;;;;2.08;0.82;;;;;;;;;;5131370;27;42548;-70
2023/09/22 09:49:51;;;;;;;4.10;0.68;;;;;;;;;;5127211;27;42332;-71
2023/09/22 09:52:22;;;;;;;2.38;0.77;;;;;;;;;;5119164;27;41070;-70
2023/09/22 09:54:51;;;;;;;2.38;0.75;;;;;;;;;;5129988;27;42234;-72
2023/09/22 09:57:19;;;;;;;2.58;0.70;;;;;;;;;;5129514;27;41528;-72
2023/09/22 09:59:47;;;;;;;2.83;0.70;;;;;;;;;;5111402;27;40431;-70
2023/09/22 10:02:15;;;;;;;6.57;0.70;;;;;;;;;;5120005;27;41712;-69
2023/09/22 10:04:43;;;;;;;3.05;0.88;;;;;;;;;;5109942;27;40826;-70
2023/09/22 10:07:11;;;;;;;4.13;0.60;;;;;;;;;;5130030;27;42776;-70
2023/09/22 10:09:40;;;;;;;2.78;0.70;;;;;;;;;;5128784;27;42839;-71
2023/09/22 10:12:09;;;;;;;2.88;0.70;;;;;;;;;;5132817;27;41346;-72
2023/09/22 10:14:43;;;;;;;2.60;0.90;;;;;;;;;;5127382;27;41344;-71
2023/09/22 10:17:19;;;;;;;1.67;0.50;;;;;;;;;;5126222;27;42249;-72
2023/09/22 10:19:47;;;;;;;2.67;0.70;;;;;;;;;;5125316;27;41214;-73
2023/09/22 10:22:15;;;;;;;1.17;0.50;;;;;;;;;;5128124;27;42199;-72
2023/09/22 10:24:44;;;;;;;2.75;0.70;;;;;;;;;;5128415;27;41220;-72
2023/09/22 10:27:25;;;;;;;6.00;0.65;;;;;;;;;;5124028;27;42711;-73
2023/09/22 10:29:54;;;;;;;1.23;0.65;;;;;;;;;;5129335;27;42619;-70
2023/09/22 10:32:23;;;;;;;7.65;0.70;;;;;;;;;;5132502;27;42320;-70
2023/09/22 10:34:51;;;;;;;2.53;0.65;;;;;;;;;;5129106;27;41579;-70
2023/09/22 10:37:20;;;;;;;4.10;0.60;;;;;;;;;;5129900;27;42117;-70
2023/09/22 10:39:52;;;;;;;7.60;0.63;;;;;;;;;;5128595;27;42476;-70
2023/09/22 10:42:21;;;;;;;4.75;0.98;;;;;;;;;;5127277;27;41747;-71
2023/09/22 10:44:58;;;;;;;1.55;0.52;;;;;;;;;;5129119;27;42301;-72
2023/09/22 10:47:40;;;;;;;6.88;1.00;;;;;;;;;;5126093;27;41696;-71
2023/09/22 10:50:14;;;;;;;7.35;0.98;;;;;;;;;;5122911;27;43084;-70
2023/09/22 10:52:49;;;;;;;0.98;0.55;;;;;;;;;;5128608;27;42434;-71
2023/09/22 10:55:26;;;;;;;2.90;0.60;;;;;;;;;;5122563;27;41892;-70
2023/09/22 10:57:54;;;;;;;6.32;0.95;;;;;;;;;;5129331;27;41985;-70
2023/09/22 11:00:22;;;;;;;9.75;1.23;;;;;;;;;;5128413;27;41752;-69
2023/09/22 11:02:50;;;;;;;1.60;0.80;;;;;;;;;;5128572;27;42138;-71
2023/09/22 11:05:19;;;;;;;8.50;1.25;;;;;;;;;;5129061;27;43240;-70
2023/09/22 11:07:47;;;;;;;6.57;1.20;;;;;;;;;;5129080;27;42445;-69
2023/09/22 11:10:19;;;;;;;7.50;1.33;;;;;;;;;;5128396;27;42565;-70
2023/09/22 11:12:49;;;;;;;1.98;0.60;;;;;;;;;;5129236;27;40869;-71
2023/09/22 11:15:17;;;;;;;4.05;1.17;;;;;;;;;;5127451;27;40624;-71
2023/09/22 11:17:46;;;;;;;4.20;0.98;;;;;;;;;;5128406;27;42268;-70
2023/09/22 11:20:18;;;;;;;4.82;0.95;;;;;;;;;;5128167;27;41444;-71
2023/09/22 11:22:46;;;;;;;8.05;1.08;;;;;;;;;;5127178;27;42651;-71
2023/09/22 11:25:14;;;;;;;5.45;1.33;;;;;;;;;;5125264;27;41844;-71
2023/09/22 11:27:46;;;;;;;8.30;1.00;;;;;;;;;;5128946;27;41184;-71
2023/09/22 11:30:16;;;;;;;7.97;1.00;;;;;;;;;;5124797;27;42085;-71
2023/09/22 11:32:44;;;;;;;3.90;1.10;;;;;;;;;;5128374;27;41296;-71
2023/09/22 11:35:28;;;;;;;3.05;0.73;;;;;;;;;;5125940;27;42073;-71
2023/09/22 11:37:56;;;;;;;5.78;1.10;;;;;;;;;;5122462;27;41721;-71
2023/09/22 11:40:28;;;;;;;3.30;0.90;;;;;;;;;;5121553;27;41520;-71
2023/09/22 11:42:56;;;;;;;6.22;1.00;;;;;;;;;;5121358;27;41908;-71
2023/09/22 11:45:25;;;;;;;2.92;0.63;;;;;;;;;;5127822;27;41116;-71
2023/09/22 11:48:03;;;;;;;9.75;1.30;;;;;;;;;;5127770;27;41867;-71
2023/09/22 11:50:31;;;;;;;2.15;0.80;;;;;;;;;;5124149;27;41072;-71
2023/09/22 11:53:23;;;;;;;2.22;0.80;;;;;;;;;;5122961;27;41251;-71
2023/09/22 11:55:51;;;;;;;4.13;0.70;;;;;;;;;;5112745;27;42075;-71
2023/09/22 11:58:19;;;;;;;1.30;0.70;;;;;;;;;;5127491;27;43981;-71
2023/09/22 12:00:48;;;;;;;1.63;0.70;;;;;;;;;;5129070;27;41800;-71
2023/09/22 12:03:16;;;;;;;2.20;1.02;;;;;;;;;;5129139;27;41356;-71
2023/09/22 12:05:44;;;;;;;2.20;0.60;;;;;;;;;;5128230;27;41584;-72
2023/09/22 12:08:12;;;;;;;4.82;0.90;;;;;;;;;;5110337;27;39847;-71
2023/09/22 12:10:40;;;;;;;12.80;1.40;;;;;;;;;;5126656;27;41576;-71
2023/09/22 12:13:08;;;;;;;7.40;1.10;;;;;;;;;;5128113;27;42769;-70
2023/09/22 12:15:37;;;;;;;3.28;0.80;;;;;;;;;;5128827;27;41955;-68
2023/09/22 12:18:06;;;;;;;8.05;0.90;;;;;;;;;;5126924;27;42874;-67
2023/09/22 12:20:36;;;;;;;3.42;0.98;;;;;;;;;;5125455;27;42514;-67
2023/09/22 12:23:06;;;;;;;5.10;1.15;;;;;;;;;;5111361;27;41769;-68
2023/09/22 12:25:34;;;;;;;7.18;0.80;;;;;;;;;;5124332;27;41976;-68
2023/09/22 12:28:02;;;;;;;4.15;0.85;;;;;;;;;;5127338;27;41359;-68
2023/09/22 12:30:30;;;;;;;3.08;0.80;;;;;;;;;;5127583;27;41342;-68
2023/09/22 12:32:58;;;;;;;6.60;0.98;;;;;;;;;;5127548;27;41882;-68
2023/09/22 12:35:28;;;;;;;1.77;0.80;;;;;;;;;;5128535;27;42404;-68
2023/09/22 12:37:56;;;;;;;4.22;0.88;;;;;;;;;;5127125;27;42316;-68
2023/09/22 12:40:25;;;;;;;2.30;0.70;;;;;;;;;;5127134;27;41483;-68
2023/09/22 12:42:54;;;;;;;3.33;0.63;;;;;;;;;;5127544;27;42371;-68
2023/09/22 12:45:22;;;;;;;1.92;1.08;;;;;;;;;;5127457;27;42345;-68
2023/09/22 12:47:50;;;;;;;2.20;0.70;;;;;;;;;;5127158;27;41172;-68
2023/09/22 12:50:18;;;;;;;4.88;1.00;;;;;;;;;;5128077;27;40886;-68
2023/09/22 12:52:47;;;;;;;7.00;0.90;;;;;;;;;;5131723;27;41687;-68
2023/09/22 12:55:15;;;;;;;6.45;1.00;;;;;;;;;;5131744;27;41122;-68
2023/09/22 12:57:43;;;;;;;7.35;0.82;;;;;;;;;;5111609;27;41463;-68
2023/09/22 13:00:12;;;;;;;5.07;1.00;;;;;;;;;;5131005;27;41409;-69
2023/09/22 13:02:40;;;;;;;8.63;1.15;;;;;;;;;;5105334;28;42863;-68
2023/09/22 13:05:08;;;;;;;11.95;1.00;;;;;;;;;;5118281;27;43686;-67
2023/09/22 13:07:37;;;;;;;16.35;1.25;;;;;;;;;;5128562;27;40747;-68
2023/09/22 13:10:08;;;;;;;14.50;1.38;;;;;;;;;;5132146;27;41190;-68
2023/09/22 13:12:36;;;;;;;15.20;1.13;;;;;;;;;;5130925;27;43160;-68
2023/09/22 13:15:04;;;;;;;12.10;1.08;;;;;;;;;;5130646;27;42127;-67
2023/09/22 13:17:33;;;;;;;34.90;2.88;;;;;;;;;;5130970;27;42689;-67
2023/09/22 13:20:01;;;;;;;15.55;2.22;;;;;;;;;;5129052;27;41857;-66
2023/09/22 13:22:29;;;;;;;20.08;1.63;;;;;;;;;;5120871;27;41932;-67
2023/09/22 13:24:57;;;;;;;11.70;1.10;;;;;;;;;;5131259;27;43410;-66
2023/09/22 13:27:27;;;;;;;6.15;1.13;;;;;;;;;;5130852;27;42039;-66
2023/09/22 13:29:55;;;;;;;12.77;1.50;;;;;;;;;;5124525;27;42207;-66
2023/09/22 13:32:23;;;;;;;13.15;1.30;;;;;;;;;;5130431;27;43322;-68
2023/09/22 13:34:51;;;;;;;6.35;0.90;;;;;;;;;;5131156;27;41581;-68
2023/09/22 13:37:19;;;;;;;9.43;1.20;;;;;;;;;;5129806;27;41985;-68
2023/09/22 13:39:47;;;;;;;6.15;0.80;;;;;;;;;;5130785;27;41760;-67
2023/09/22 13:42:15;;;;;;;3.20;1.00;;;;;;;;;;5131021;27;42450;-68
2023/09/22 13:44:45;;;;;;;2.97;0.90;;;;;;;;;;5130829;27;42928;-67
2023/09/22 13:47:12;;;;;;;9.45;1.30;;;;;;;;;;5120742;27;40110;-67
2023/09/22 13:49:41;;;;;;;3.40;0.90;;;;;;;;;;5129244;27;41520;-67
2023/09/22 13:52:09;;;;;;;3.85;0.82;;;;;;;;;;5131812;27;41974;-69
2023/09/22 13:54:37;;;;;;;1.63;0.70;;;;;;;;;;5130739;27;42096;-68
2023/09/22 13:57:05;;;;;;;1.15;0.73;;;;;;;;;;5127868;27;42649;-68
2023/09/22 13:59:33;;;;;;;5.75;0.80;;;;;;;;;;5129904;27;41660;-69
2023/09/22 14:02:02;;;;;;;4.00;0.73;;;;;;;;;;5130768;27;41417;-69
2023/09/22 14:04:30;;;;;;;4.75;0.88;;;;;;;;;;5128776;27;42362;-69
2023/09/22 14:06:58;;;;;;;6.95;1.00;;;;;;;;;;5130790;27;42071;-69
2023/09/22 14:09:27;;;;;;;7.07;0.90;;;;;;;;;;5129580;27;41673;-69
2023/09/22 14:11:55;;;;;;;17.20;1.55;;;;;;;;;;5128870;27;42300;-69
2023/09/22 14:14:23;;;;;;;3.67;0.70;;;;;;;;;;5128309;27;41436;-69
2023/09/22 14:16:51;;;;;;;2.90;0.60;;;;;;;;;;5129684;27;41976;-69
2023/09/22 14:19:21;;;;;;;5.10;1.15;;;;;;;;;;5128393;27;41717;-69
2023/09/22 14:21:49;;;;;;;7.43;1.02;;;;;;;;;;5116805;27;40692;-69
2023/09/22 14:24:17;;;;;;;3.13;0.57;;;;;;;;;;5122168;27;41838;-68
2023/09/22 14:26:45;;;;;;;7.13;1.00;;;;;;;;;;5129892;27;41942;-68
2023/09/22 14:29:13;;;;;;;1.35;0.80;;;;;;;;;;5129699;27;42691;-68
2023/09/22 14:31:41;;;;;;;1.38;0.77;;;;;;;;;;5128571;27;42541;-68
2023/09/22 14:34:09;;;;;;;2.63;0.98;;;;;;;;;;5130110;27;41508;-68
2023/09/22 14:36:39;;;;;;;2.25;0.50;;;;;;;;;;5129959;27;41677;-69
2023/09/22 14:39:07;;;;;;;2.15;0.88;;;;;;;;;;5128062;27;42701;-69
2023/09/22 14:41:35;;;;;;;3.42;0.68;;;;;;;;;;5129691;27;41438;-68
2023/09/22 14:44:03;;;;;;;0.95;0.47;;;;;;;;;;5129450;27;41483;-69
2023/09/22 14:46:31;;;;;;;2.67;0.65;;;;;;;;;;5129283;27;33796;-69
2023/09/22 14:49:00;;;;;;;1.55;0.70;;;;;;;;;;5128877;27;42783;-68
2023/09/22 14:51:28;;;;;;;13.60;0.80;;;;;;;;;;5129139;27;43151;-68
2023/09/22 14:54:00;;;;;;;4.10;0.60;;;;;;;;;;5128150;27;41792;-68